European Seaway — MPDG3 — position and weather

sailwx.info

Track history (hours):
 
Tides and Currents Weather Stations Pressure Air Temp Water Temp Dewpoint Dewpoint Depression Visibility Wind Speed Wind Dir Waves Ship Positions

European Seaway

Operator: P & O Ferries

Last reported at 2018-May-27 08:00 UTC. Time now 2018-May-27 08:12 UTC.
Position N 50°58' E 001°52'.

Length 179 m; draft 6 m.

Type: Passenger vessel. MMSI: 232001040.

Date/timePositionNaut miles runAvg speedWind from/ knotsBaromVisibWave heightAir tempDewpointWater temp
2018-May-27 08:00N 50°58' E 001°52'0 0.4
2018-May-27 07:30N 50°58' E 001°52'0 0.0
2018-May-27 07:00N 50°58' E 001°52'0 0.0
2018-May-27 06:30N 50°58' E 001°52'0 0.0
2018-May-27 06:00N 50°58' E 001°52'0 0.0
2018-May-27 05:30N 50°58' E 001°52'0 0.0
2018-May-27 05:00N 50°58' E 001°52'0 0.0
2018-May-27 04:31N 50°58' E 001°52'0 0.0
2018-May-27 04:00N 50°58' E 001°52'0 0.0
2018-May-27 03:30N 50°58' E 001°52'0 0.0
2018-May-27 03:00N 50°58' E 001°52'0 0.0
2018-May-27 02:30N 50°58' E 001°52'0 0.0
2018-May-27 02:00N 50°58' E 001°52'0 0.0
2018-May-27 01:30N 50°58' E 001°52'0 0.0
2018-May-27 01:00N 50°58' E 001°52'0 0.0
2018-May-27 00:30N 50°58' E 001°52'0 0.0
2018-May-27 00:00N 50°58' E 001°52'0 0.0
2018-May-26 23:30N 50°58' E 001°52'0 0.0
2018-May-26 23:00N 50°58' E 001°52'0 0.0
2018-May-26 22:30N 50°58' E 001°52'0 0.0
2018-May-26 22:00N 50°58' E 001°52'0 0.0
2018-May-26 21:30N 50°58' E 001°52'0 0.0
2018-May-26 21:00N 50°58' E 001°52'0 0.0
2018-May-26 20:30N 50°58' E 001°52'0 0.0
2018-May-26 20:00N 50°58' E 001°52'0 0.1
2018-May-26 19:30N 50°58' E 001°52'1 1.2
2018-May-26 19:00N 50°58' E 001°51'3 6.3
2018-May-26 18:30N 50°58' E 001°46'815.9
2018-May-26 18:00N 50°59' E 001°34'917.4
2018-May-26 17:30N 51°05' E 001°24'3 4.2
2018-May-26 16:48N 51°07' E 001°20'0 0.3
2018-May-26 16:21N 51°07' E 001°20'412.6
2018-May-26 16:00N 51°06' E 001°27'713.4
2018-May-26 15:30N 51°02' E 001°36'816.5
2018-May-26 15:00N 50°58' E 001°47'3 6.1
2018-May-26 14:30N 50°58' E 001°52'0 0.0
2018-May-26 14:00N 50°58' E 001°52'2 4.4
2018-May-26 13:31N 50°58' E 001°48'816.4
2018-May-26 13:00N 51°00' E 001°35'918.0
2018-May-26 12:31N 51°06' E 001°24'3 3.5
2018-May-26 11:37N 51°07' E 001°20'0 0.0
2018-May-26 11:25N 51°07' E 001°20'2 2.6
2018-May-26 10:50N 51°07' E 001°23'412.2
2018-May-26 10:30N 51°06' E 001°29'816.5
2018-May-26 10:00N 51°02' E 001°40'714.2
2018-May-26 09:31N 50°58' E 001°50'1 1.7
2018-May-26 08:58N 50°58' E 001°51'0 0.0
2018-May-26 08:29N 50°58' E 001°51'0 0.0
2018-May-26 08:00N 50°58' E 001°51'0 0.0
2018-May-26 07:30N 50°58' E 001°51'0 0.0
2018-May-26 07:00N 50°58' E 001°51'0 0.0
2018-May-26 06:19N 50°58' E 001°51'0 0.0
2018-May-26 05:30N 50°58' E 001°51'0 0.0
2018-May-26 04:59N 50°58' E 001°51'0 0.0
2018-May-26 04:30N 50°58' E 001°51'0 0.0
2018-May-26 04:00N 50°58' E 001°51'0 0.0
2018-May-26 03:30N 50°58' E 001°51'0 0.0
2018-May-26 03:00N 50°58' E 001°51'0 0.0
2018-May-26 02:30N 50°58' E 001°51'0 0.0
2018-May-26 02:00N 50°58' E 001°51'0 0.0
2018-May-26 01:29N 50°58' E 001°51'0 0.0
2018-May-26 01:01N 50°58' E 001°51'0 0.0
2018-May-26 00:30N 50°58' E 001°51'0 0.0
2018-May-26 00:00N 50°58' E 001°51'0 0.0
2018-May-25 23:25N 50°58' E 001°51'0 0.0
2018-May-25 22:59N 50°58' E 001°51'0 0.0
2018-May-25 22:28N 50°58' E 001°51'0 0.0
2018-May-25 22:01N 50°58' E 001°51'0 0.0
2018-May-25 21:30N 50°58' E 001°51'0 0.0
2018-May-25 21:00N 50°58' E 001°51'0 0.0
2018-May-25 20:29N 50°58' E 001°51'0 0.0
2018-May-25 19:59N 50°58' E 001°51'0 0.0
2018-May-25 19:30N 50°58' E 001°51'0 0.0
2018-May-25 19:00N 50°58' E 001°51'2 5.1
2018-May-25 18:30N 50°58' E 001°47'816.3
2018-May-25 18:01N 51°01' E 001°35'917.3
2018-May-25 17:30N 51°06' E 001°24'2 2.1
2018-May-25 16:22N 51°07' E 001°20'616.2
2018-May-25 16:00N 51°05' E 001°29'713.2
2018-May-25 15:30N 51°01' E 001°38'816.8
2018-May-25 15:00N 50°58' E 001°50'1 2.2
2018-May-25 14:31N 50°58' E 001°52'0 0.0
2018-May-25 13:58N 50°58' E 001°52'3 7.1
2018-May-25 13:30N 50°58' E 001°47'714.1
2018-May-25 13:00N 51°00' E 001°36'917.3
2018-May-25 12:30N 51°05' E 001°25'3 1.6
2018-May-25 10:53N 51°07' E 001°22'615.9
2018-May-25 10:31N 51°06' E 001°31'917.8
2018-May-25 10:01N 51°00' E 001°41'612.2
2018-May-25 09:31N 50°58' E 001°50'1 1.5
2018-May-25 08:59N 50°58' E 001°52'0 0.0
2018-May-25 08:30N 50°58' E 001°52'0 0.0
2018-May-25 08:00N 50°58' E 001°52'0 0.0
2018-May-25 07:30N 50°58' E 001°52'0 0.0
2018-May-25 06:59N 50°58' E 001°52'0 0.0
2018-May-25 06:31N 50°58' E 001°52'0 0.0
2018-May-25 06:00N 50°58' E 001°52'0 0.0
2018-May-25 05:30N 50°58' E 001°52'0 0.0
2018-May-25 05:00N 50°58' E 001°52'0 0.0
2018-May-25 04:31N 50°58' E 001°52'0 0.0
2018-May-25 03:49N 50°58' E 001°52'0 0.0
2018-May-25 03:30N 50°58' E 001°52'0 0.0
2018-May-25 03:00N 50°58' E 001°52'0 0.0
2018-May-25 02:29N 50°58' E 001°52'0 0.0
2018-May-25 02:00N 50°58' E 001°52'0 0.0
2018-May-25 01:26N 50°58' E 001°52'0 0.0
2018-May-25 01:00N 50°58' E 001°52'0 0.0
2018-May-25 00:30N 50°58' E 001°52'0 0.0
2018-May-25 00:00N 50°58' E 001°52'0 0.0
2018-May-24 23:25N 50°58' E 001°52'0 0.0
2018-May-24 23:00N 50°58' E 001°52'0 0.0
2018-May-24 22:30N 50°58' E 001°52'0 0.0
2018-May-24 22:00N 50°58' E 001°52'0 0.0
2018-May-24 21:30N 50°58' E 001°52'0 0.0
2018-May-24 21:00N 50°58' E 001°52'0 0.0
2018-May-24 20:27N 50°58' E 001°52'0 0.0
2018-May-24 20:00N 50°58' E 001°52'0 0.0
2018-May-24 19:31N 50°58' E 001°52'0 0.0
2018-May-24 18:59N 50°58' E 001°52'4 8.5
2018-May-24 18:30N 50°58' E 001°45'917.6
2018-May-24 18:00N 51°01' E 001°32'917.5
2018-May-24 17:29N 51°07' E 001°21'1 0.9
2018-May-24 16:43N 51°07' E 001°20'0 0.6
2018-May-24 16:24N 51°07' E 001°20'410.2
2018-May-24 16:00N 51°06' E 001°26'612.3
2018-May-24 15:30N 51°02' E 001°34'714.4
2018-May-24 15:00N 50°59' E 001°44'5 9.1
2018-May-24 14:30N 50°58' E 001°51'0 0.0
2018-May-24 14:00N 50°58' E 001°51'3 7.0
2018-May-24 13:30N 50°58' E 001°45'3 0.8
2018-May-24 09:00N 50°58' E 001°51'0 0.2
2018-May-24 08:30N 50°58' E 001°51'1 1.1
2018-May-24 07:55N 50°58' E 001°52'0 0.0
2018-May-24 07:27N 50°58' E 001°52'0 0.0
2018-May-24 07:00N 50°58' E 001°52'0 0.0
2018-May-24 06:30N 50°58' E 001°52'0 0.0
2018-May-24 06:00N 50°58' E 001°52'0 0.0
2018-May-24 05:30N 50°58' E 001°52'0 0.0
2018-May-24 05:00N 50°58' E 001°52'0 0.0
2018-May-24 04:30N 50°58' E 001°52'0 0.0
2018-May-24 04:00N 50°58' E 001°52'0 0.0
2018-May-24 03:30N 50°58' E 001°52'0 0.0
2018-May-24 03:00N 50°58' E 001°52'0 0.0
2018-May-24 02:30N 50°58' E 001°52'0 0.0
2018-May-24 02:00N 50°58' E 001°52'0 0.0
2018-May-24 01:30N 50°58' E 001°52'0 0.0
2018-May-24 01:00N 50°58' E 001°52'0 0.0
2018-May-24 00:30N 50°58' E 001°52'0 0.0
2018-May-24 00:00N 50°58' E 001°52'0 0.0
2018-May-23 23:30N 50°58' E 001°52'0 0.0
2018-May-23 23:00N 50°58' E 001°52'0 0.0
2018-May-23 22:30N 50°58' E 001°52'0 0.0
2018-May-23 21:59N 50°58' E 001°52'0 0.6
2018-May-23 21:30N 50°58' E 001°52'0 0.1
2018-May-23 20:59N 50°58' E 001°52'3 6.8
2018-May-23 20:31N 50°58' E 001°47'815.3
2018-May-23 20:00N 51°01' E 001°35'917.2
2018-May-23 19:30N 51°06' E 001°24'3 3.7
2018-May-23 18:41N 51°07' E 001°20'0 0.0
2018-May-23 18:24N 51°07' E 001°20'1 3.2
2018-May-23 17:59N 51°07' E 001°22'815.7
2018-May-23 17:31N 51°05' E 001°33'816.7
2018-May-23 17:00N 50°59' E 001°43'510.4
2018-May-23 16:30N 50°58' E 001°52'0 0.0
2018-May-23 16:00N 50°58' E 001°52'2 3.1
2018-May-23 15:30N 50°58' E 001°49'815.2
2018-May-23 15:00N 50°59' E 001°37'816.8
2018-May-23 14:30N 51°04' E 001°27'4 2.7
2018-May-23 13:06N 51°07' E 001°22'117.3
2018-May-23 13:01N 51°06' E 001°25'816.7
2018-May-23 12:31N 51°02' E 001°35'816.8
2018-May-23 12:01N 50°58' E 001°48'3 5.0
2018-May-23 11:30N 50°58' E 001°52'0 0.0
2018-May-23 10:53N 50°58' E 001°52'3 9.1
2018-May-23 10:30N 50°58' E 001°46'815.7
2018-May-23 10:00N 51°00' E 001°34'917.2
2018-May-23 09:30N 51°06' E 001°24'2 1.4
2018-May-23 08:13N 51°07' E 001°22'416.4
2018-May-23 08:01N 51°06' E 001°28'816.3
2018-May-23 07:31N 51°02' E 001°39'714.8
2018-May-23 07:00N 50°58' E 001°49'2 3.2
2018-May-23 06:28N 50°58' E 001°52'0 0.0
2018-May-23 06:00N 50°58' E 001°52'611.3
2018-May-23 05:30N 50°58' E 001°43'917.7
2018-May-23 05:00N 51°03' E 001°30'8 7.6
2018-May-23 03:56N 51°07' E 001°20'1 2.0
2018-May-23 03:19N 51°07' E 001°22'2 5.6
2018-May-23 03:01N 51°07' E 001°25'714.5
2018-May-23 02:30N 51°03' E 001°35'816.1
2018-May-23 02:00N 50°58' E 001°45'4 8.3
2018-May-23 01:28N 50°58' E 001°52'0 0.0
2018-May-23 01:00N 50°58' E 001°52'0 0.0
2018-May-23 00:30N 50°58' E 001°52'0 0.0
2018-May-22 23:56N 50°58' E 001°52'0 0.0
2018-May-22 23:28N 50°58' E 001°52'0 0.0
2018-May-22 23:00N 50°58' E 001°52'0 0.0
2018-May-22 22:24N 50°58' E 001°52'0 0.0
2018-May-22 21:57N 50°58' E 001°52'0 0.0
2018-May-22 21:26N 50°58' E 001°52'0 0.0
2018-May-22 20:55N 50°58' E 001°52'0 0.0
2018-May-22 20:25N 50°58' E 001°52'0 0.0
2018-May-22 20:00N 50°58' E 001°52'3 6.8
2018-May-22 19:30N 50°58' E 001°46'816.3
2018-May-22 19:01N 51°01' E 001°35'917.1
2018-May-22 18:31N 51°06' E 001°23'2 3.1
2018-May-22 17:45N 51°07' E 001°20'0 0.3
2018-May-22 17:20N 51°07' E 001°20'514.6
2018-May-22 17:01N 51°06' E 001°27'917.8
2018-May-22 16:31N 51°01' E 001°39'815.3
2018-May-22 16:00N 50°58' E 001°50'0 0.8
2018-May-22 15:29N 50°58' E 001°51'1 1.5
2018-May-22 15:01N 50°58' E 001°50'815.8
2018-May-22 14:30N 51°01' E 001°38'917.3
2018-May-22 14:00N 51°05' E 001°26'4 7.5
2018-May-22 13:25N 51°07' E 001°20'0 0.0
2018-May-22 13:01N 51°07' E 001°20'3 5.7
2018-May-22 12:30N 51°07' E 001°24'918.2
2018-May-22 12:00N 51°02' E 001°37'917.4
2018-May-22 11:30N 50°58' E 001°49'1 2.1
2018-May-22 11:00N 50°58' E 001°51'0 0.2
2018-May-22 10:30N 50°58' E 001°51'613.1
2018-May-22 10:00N 50°58' E 001°41'714.8
2018-May-22 09:31N 51°02' E 001°31'914.6
2018-May-22 08:54N 51°07' E 001°20'0 0.0
2018-May-22 08:27N 51°07' E 001°20'0 0.8
2018-May-22 07:59N 51°07' E 001°21'816.9
2018-May-22 07:30N 51°04' E 001°32'917.5
2018-May-22 07:00N 50°59' E 001°43'5 9.7
2018-May-22 06:30N 50°58' E 001°51'0 0.0
2018-May-22 05:59N 50°58' E 001°51'3 5.5
2018-May-22 05:31N 50°58' E 001°47'917.9
2018-May-22 05:00N 51°02' E 001°34'917.8
2018-May-22 04:30N 51°07' E 001°22'1 2.5
2018-May-22 03:57N 51°07' E 001°20'0 0.0
2018-May-22 03:29N 51°07' E 001°20'0 0.6
2018-May-22 03:01N 51°07' E 001°20'815.6
2018-May-22 02:31N 51°04' E 001°32'917.7
2018-May-22 02:00N 50°59' E 001°43'5 9.9
2018-May-22 01:30N 50°58' E 001°51'0 0.0
2018-May-22 01:00N 50°58' E 001°51'0 0.0
2018-May-22 00:30N 50°58' E 001°51'0 0.0
2018-May-22 00:00N 50°58' E 001°51'0 0.0
2018-May-21 23:30N 50°58' E 001°51'0 0.0
2018-May-21 22:59N 50°58' E 001°51'0 0.0
2018-May-21 22:30N 50°58' E 001°51'0 0.0
2018-May-21 22:00N 50°58' E 001°51'0 0.0
2018-May-21 21:30N 50°58' E 001°51'0 0.0
2018-May-21 20:59N 50°58' E 001°51'0 0.0
2018-May-21 20:30N 50°58' E 001°51'0 0.0
2018-May-21 19:57N 50°58' E 001°51'1 2.5
2018-May-21 19:30N 50°58' E 001°49'917.7
2018-May-21 19:01N 50°59' E 001°35'917.6
2018-May-21 18:31N 51°05' E 001°25'4 4.6
2018-May-21 17:39N 51°07' E 001°20'0 0.5
2018-May-21 17:22N 51°07' E 001°20'412.2
2018-May-21 17:00N 51°06' E 001°27'917.7
2018-May-21 16:30N 51°01' E 001°39'815.0
2018-May-21 16:00N 50°58' E 001°50'1 1.6
2018-May-21 15:29N 50°58' E 001°51'0 0.7
2018-May-21 15:00N 50°58' E 001°51'817.0
2018-May-21 14:30N 50°59' E 001°37'917.7
2018-May-21 14:00N 51°04' E 001°25'5 5.3
2018-May-21 13:07N 51°07' E 001°20'0 0.9
2018-May-21 12:57N 51°07' E 001°20'715.6
2018-May-21 12:30N 51°04' E 001°30'918.3
2018-May-21 12:00N 50°59' E 001°42'611.2
2018-May-21 11:30N 50°58' E 001°51'0 0.0
2018-May-21 11:00N 50°58' E 001°51'1 2.1
2018-May-21 10:31N 50°58' E 001°49'815.3
2018-May-21 10:01N 50°59' E 001°37'917.7
2018-May-21 09:31N 51°05' E 001°26'5 8.9
2018-May-21 08:59N 51°07' E 001°20'0 0.0
2018-May-21 08:23N 51°07' E 001°20'3 6.8
2018-May-21 08:00N 51°07' E 001°24'917.5
2018-May-21 07:30N 51°03' E 001°36'816.9
2018-May-21 07:00N 50°58' E 001°48'2 4.8
2018-May-21 06:30N 50°58' E 001°52'0 0.0
2018-May-21 05:59N 50°58' E 001°52'0 0.0
2018-May-21 05:30N 50°58' E 001°52'0 0.0
2018-May-21 05:00N 50°58' E 001°52'0 0.0
2018-May-21 04:29N 50°58' E 001°52'0 0.0
2018-May-21 04:01N 50°58' E 001°52'0 0.0
2018-May-21 03:31N 50°58' E 001°52'0 0.0
2018-May-21 03:00N 50°58' E 001°52'0 0.0
2018-May-21 02:29N 50°58' E 001°52'0 0.0
2018-May-21 02:00N 50°58' E 001°52'0 0.0
2018-May-21 01:30N 50°58' E 001°52'0 0.0
2018-May-21 01:00N 50°58' E 001°52'0 0.0
2018-May-21 00:30N 50°58' E 001°52'0 0.0
2018-May-21 00:00N 50°58' E 001°52'0 0.0
2018-May-20 23:29N 50°58' E 001°52'0 0.0
2018-May-20 23:00N 50°58' E 001°52'0 0.0
2018-May-20 22:30N 50°58' E 001°52'0 0.0
2018-May-20 21:47N 50°58' E 001°52'0 0.0
2018-May-20 21:29N 50°58' E 001°52'0 0.0
2018-May-20 21:00N 50°58' E 001°52'0 0.0
2018-May-20 20:30N 50°58' E 001°52'0 0.0
2018-May-20 19:57N 50°58' E 001°52'1 1.8
2018-May-20 19:30N 50°58' E 001°50'816.2
2018-May-20 19:00N 50°60' E 001°38'918.2
2018-May-20 18:31N 51°05' E 001°26'5 5.4
2018-May-20 17:39N 51°07' E 001°20'0 1.0
2018-May-20 17:30N 51°07' E 001°20'815.5
2018-May-20 17:00N 51°05' E 001°32'917.2
2018-May-20 16:30N 50°59' E 001°42'610.6
2018-May-20 15:59N 50°58' E 001°51'0 0.0
2018-May-20 15:30N 50°58' E 001°51'1 1.5
2018-May-20 15:00N 50°58' E 001°50'917.8
2018-May-20 14:30N 51°01' E 001°36'918.2
2018-May-20 14:00N 51°06' E 001°24'2 2.4
2018-May-20 13:01N 51°07' E 001°21'016.1
2018-May-20 13:00N 51°07' E 001°22'817.3
2018-May-20 12:31N 51°03' E 001°33'918.0
2018-May-20 12:00N 50°58' E 001°45'4 7.5
2018-May-20 11:29N 50°58' E 001°52'0 0.0
2018-May-20 10:58N 50°58' E 001°52'2 4.4
2018-May-20 10:30N 50°58' E 001°48'713.6
2018-May-20 10:00N 50°58' E 001°38'815.8
2018-May-20 09:30N 51°03' E 001°28'6 4.8
2018-May-20 08:11N 51°07' E 001°20'213.4
2018-May-20 08:01N 51°07' E 001°24'918.0
2018-May-20 07:31N 51°02' E 001°36'917.4
2018-May-20 07:00N 50°58' E 001°49'2 3.3
2018-May-20 06:25N 50°58' E 001°52'0 0.6
2018-May-20 06:00N 50°58' E 001°52'0 0.0
2018-May-20 05:30N 50°58' E 001°52'0 0.0
2018-May-20 05:00N 50°58' E 001°52'0 0.0
2018-May-20 04:30N 50°58' E 001°52'0 0.0
2018-May-20 04:00N 50°58' E 001°52'0 0.0
2018-May-20 03:30N 50°58' E 001°52'0 0.0
2018-May-20 03:00N 50°58' E 001°52'0 0.0
2018-May-20 02:30N 50°58' E 001°52'0 0.0
2018-May-20 02:00N 50°58' E 001°52'0 0.0
2018-May-20 01:30N 50°58' E 001°52'0 0.0
2018-May-20 01:00N 50°58' E 001°52'0 0.0
2018-May-20 00:30N 50°58' E 001°52'0 0.0
2018-May-20 00:00N 50°58' E 001°52'0 0.0
2018-May-19 23:29N 50°58' E 001°52'0 0.0
2018-May-19 22:59N 50°58' E 001°52'0 0.0
2018-May-19 22:30N 50°58' E 001°52'0 0.0
2018-May-19 22:00N 50°58' E 001°52'0 0.0
2018-May-19 21:30N 50°58' E 001°52'0 0.0
2018-May-19 20:58N 50°58' E 001°52'0 0.7
2018-May-19 20:30N 50°58' E 001°52'0 0.9
2018-May-19 20:00N 50°58' E 001°51'714.6
2018-May-19 19:30N 50°58' E 001°39'815.6
2018-May-19 19:00N 51°03' E 001°30'6 5.2
2018-May-19 17:50N 51°07' E 001°22'617.0
2018-May-19 17:30N 51°06' E 001°31'917.3
2018-May-19 17:00N 51°00' E 001°42'611.8
2018-May-19 16:28N 50°58' E 001°51'0 0.0
2018-May-19 16:00N 50°58' E 001°51'1 2.2
2018-May-19 15:30N 50°58' E 001°49'917.1
2018-May-19 15:00N 51°00' E 001°36'917.2
2018-May-19 14:31N 51°05' E 001°25'2 1.8
2018-May-19 13:07N 51°07' E 001°22'216.4
2018-May-19 13:00N 51°07' E 001°25'917.3
2018-May-19 12:30N 51°02' E 001°37'816.0
2018-May-19 12:00N 50°58' E 001°48'2 4.0
2018-May-19 11:30N 50°58' E 001°51'0 0.0
2018-May-19 11:01N 50°58' E 001°51'4 8.9
2018-May-19 10:31N 50°58' E 001°44'815.7
2018-May-19 10:00N 51°01' E 001°32'816.6
2018-May-19 09:30N 51°06' E 001°22'2 2.9
2018-May-19 08:56N 51°07' E 001°20'0 0.0
2018-May-19 08:28N 51°07' E 001°20'2 4.5
2018-May-19 08:00N 51°07' E 001°23'917.8
2018-May-19 07:30N 51°03' E 001°36'917.2
2018-May-19 07:00N 50°58' E 001°47'2 3.9
2018-May-19 06:26N 50°58' E 001°51'0 0.0
2018-May-19 06:00N 50°58' E 001°51'611.6
2018-May-19 05:31N 50°58' E 001°42'917.2
2018-May-19 05:00N 51°02' E 001°30'8 8.4
2018-May-19 04:03N 51°07' E 001°20'1 1.2
2018-May-19 02:48N 51°07' E 001°22'311.8
2018-May-19 02:31N 51°06' E 001°27'714.9
2018-May-19 02:00N 51°02' E 001°37'714.0
2018-May-19 01:30N 50°58' E 001°47'3 5.0
2018-May-19 01:00N 50°58' E 001°51'0 0.0
2018-May-19 00:30N 50°58' E 001°51'0 0.0
2018-May-19 00:01N 50°58' E 001°51'0 0.0
2018-May-18 23:30N 50°58' E 001°51'0 0.0
2018-May-18 23:00N 50°58' E 001°51'0 0.0
2018-May-18 22:30N 50°58' E 001°51'0 0.0
2018-May-18 22:01N 50°58' E 001°51'0 0.0
2018-May-18 21:30N 50°58' E 001°51'0 0.0
2018-May-18 21:01N 50°58' E 001°51'0 0.0
2018-May-18 20:29N 50°58' E 001°51'4 9.4
2018-May-18 20:01N 50°58' E 001°44'815.5
2018-May-18 19:30N 51°01' E 001°33'917.3
2018-May-18 19:00N 51°06' E 001°22'1 0.5
2018-May-18 17:37N 51°07' E 001°22'217.1
2018-May-18 17:30N 51°06' E 001°25'917.5
2018-May-18 17:00N 51°02' E 001°37'816.6
2018-May-18 16:30N 50°58' E 001°49'1 2.4
2018-May-18 15:58N 50°58' E 001°51'0 0.9
2018-May-18 15:30N 50°58' E 001°50'816.8
2018-May-18 15:00N 50°60' E 001°38'917.7
2018-May-18 14:30N 51°05' E 001°26'5 4.9
2018-May-18 13:33N 51°07' E 001°20'0 1.1
2018-May-18 13:17N 51°07' E 001°20'3 9.7
2018-May-18 13:01N 51°07' E 001°24'917.2
2018-May-18 12:31N 51°02' E 001°36'815.8
2018-May-18 12:00N 50°58' E 001°47'3 5.6
2018-May-18 11:29N 50°58' E 001°52'0 0.0
2018-May-18 10:59N 50°58' E 001°52'612.0
2018-May-18 10:30N 50°58' E 001°42'816.2
2018-May-18 10:00N 51°02' E 001°32'916.0
2018-May-18 09:27N 51°07' E 001°20'0 0.4
2018-May-18 08:55N 51°07' E 001°20'0 0.3
2018-May-18 08:20N 51°07' E 001°20'2 6.8
2018-May-18 08:00N 51°07' E 001°24'917.6
2018-May-18 07:30N 51°02' E 001°35'917.5
2018-May-18 07:00N 50°58' E 001°48'2 4.4
2018-May-18 06:28N 50°58' E 001°52'0 0.0
2018-May-18 06:00N 50°58' E 001°52'2 4.0
2018-May-18 05:31N 50°58' E 001°49'815.2
2018-May-18 05:00N 51°00' E 001°37'917.5
2018-May-18 04:30N 51°05' E 001°26'4 4.8
2018-May-18 03:39N 51°07' E 001°20'0 0.0
2018-May-18 03:08N 51°07' E 001°20'0 0.0
2018-May-18 02:48N 51°07' E 001°20'1 1.8
2018-May-18 02:28N 51°07' E 001°21'715.3
2018-May-18 02:00N 51°06' E 001°32'713.1
2018-May-18 01:31N 51°01' E 001°39'612.8
2018-May-18 01:00N 50°58' E 001°48'2 3.6
2018-May-18 00:30N 50°58' E 001°51'0 0.0
2018-May-18 00:00N 50°58' E 001°51'1 1.1
2018-May-17 23:30N 50°58' E 001°52'0 0.0
2018-May-17 23:00N 50°58' E 001°52'0 0.0
2018-May-17 22:30N 50°58' E 001°52'1 1.1
2018-May-17 22:00N 50°58' E 001°51'0 0.0
2018-May-17 21:30N 50°58' E 001°51'510.2
2018-May-17 21:00N 50°58' E 001°43'815.6
2018-May-17 20:30N 51°02' E 001°32'913.6
2018-May-17 19:49N 51°07' E 001°20'0 0.0
2018-May-17 19:30N 51°07' E 001°20'1 1.1
2018-May-17 18:47N 51°07' E 001°21'517.6
2018-May-17 18:30N 51°05' E 001°28'917.3
2018-May-17 18:01N 51°00' E 001°40'714.6
2018-May-17 17:30N 50°58' E 001°51'0 0.4
2018-May-17 17:00N 50°58' E 001°51'0 0.0
2018-May-17 16:31N 50°58' E 001°51'4 8.7
2018-May-17 16:00N 50°58' E 001°44'815.9
2018-May-17 15:29N 51°00' E 001°32'816.4
2018-May-17 15:00N 51°06' E 001°22'2 2.2
2018-May-17 14:01N 51°07' E 001°20'0 1.0
2018-May-17 13:46N 51°07' E 001°20'414.3
2018-May-17 13:30N 51°07' E 001°26'816.6
2018-May-17 13:00N 51°02' E 001°37'714.7
2018-May-17 12:30N 50°58' E 001°47'3 5.6
2018-May-17 12:00N 50°58' E 001°52'0 0.0
2018-May-17 11:31N 50°58' E 001°52'1 1.1
2018-May-17 11:00N 50°58' E 001°51'815.2
2018-May-17 10:31N 50°59' E 001°39'817.0
2018-May-17 10:00N 51°04' E 001°28'6 9.3
2018-May-17 09:22N 51°07' E 001°20'1 1.5
2018-May-17 08:23N 51°07' E 001°22'717.6
2018-May-17 08:00N 51°05' E 001°32'  
Track history (hours):
 
Tides and Currents Weather Stations Pressure Air Temp Water Temp Dewpoint Dewpoint Depression Visibility Wind Speed Wind Dir Waves Ship Positions

European Seaway

Operator: P & O Ferries

Last reported at 2018-May-27 08:00 UTC. Time now 2018-May-27 08:12 UTC.
Position N 50°58' E 001°52'.

Length 179 m; draft 6 m.

Type: Passenger vessel. MMSI: 232001040.

Date/timePositionNaut miles runAvg speedWind from/ knotsBaromVisibWave heightAir tempDewpointWater temp
2018-May-27 08:00N 50°58' E 001°52'0 0.4
2018-May-27 07:30N 50°58' E 001°52'0 0.0
2018-May-27 07:00N 50°58' E 001°52'0 0.0
2018-May-27 06:30N 50°58' E 001°52'0 0.0
2018-May-27 06:00N 50°58' E 001°52'0 0.0
2018-May-27 05:30N 50°58' E 001°52'0 0.0
2018-May-27 05:00N 50°58' E 001°52'0 0.0
2018-May-27 04:31N 50°58' E 001°52'0 0.0
2018-May-27 04:00N 50°58' E 001°52'0 0.0
2018-May-27 03:30N 50°58' E 001°52'0 0.0
2018-May-27 03:00N 50°58' E 001°52'0 0.0
2018-May-27 02:30N 50°58' E 001°52'0 0.0
2018-May-27 02:00N 50°58' E 001°52'0 0.0
2018-May-27 01:30N 50°58' E 001°52'0 0.0
2018-May-27 01:00N 50°58' E 001°52'0 0.0
2018-May-27 00:30N 50°58' E 001°52'0 0.0
2018-May-27 00:00N 50°58' E 001°52'0 0.0
2018-May-26 23:30N 50°58' E 001°52'0 0.0
2018-May-26 23:00N 50°58' E 001°52'0 0.0
2018-May-26 22:30N 50°58' E 001°52'0 0.0
2018-May-26 22:00N 50°58' E 001°52'0 0.0
2018-May-26 21:30N 50°58' E 001°52'0 0.0
2018-May-26 21:00N 50°58' E 001°52'0 0.0
2018-May-26 20:30N 50°58' E 001°52'0 0.0
2018-May-26 20:00N 50°58' E 001°52'0 0.1
2018-May-26 19:30N 50°58' E 001°52'1 1.2
2018-May-26 19:00N 50°58' E 001°51'3 6.3
2018-May-26 18:30N 50°58' E 001°46'815.9
2018-May-26 18:00N 50°59' E 001°34'917.4
2018-May-26 17:30N 51°05' E 001°24'3 4.2
2018-May-26 16:48N 51°07' E 001°20'0 0.3
2018-May-26 16:21N 51°07' E 001°20'412.6
2018-May-26 16:00N 51°06' E 001°27'713.4
2018-May-26 15:30N 51°02' E 001°36'816.5
2018-May-26 15:00N 50°58' E 001°47'3 6.1
2018-May-26 14:30N 50°58' E 001°52'0 0.0
2018-May-26 14:00N 50°58' E 001°52'2 4.4
2018-May-26 13:31N 50°58' E 001°48'816.4
2018-May-26 13:00N 51°00' E 001°35'918.0
2018-May-26 12:31N 51°06' E 001°24'3 3.5
2018-May-26 11:37N 51°07' E 001°20'0 0.0
2018-May-26 11:25N 51°07' E 001°20'2 2.6
2018-May-26 10:50N 51°07' E 001°23'412.2
2018-May-26 10:30N 51°06' E 001°29'816.5
2018-May-26 10:00N 51°02' E 001°40'714.2
2018-May-26 09:31N 50°58' E 001°50'1 1.7
2018-May-26 08:58N 50°58' E 001°51'0 0.0
2018-May-26 08:29N 50°58' E 001°51'0 0.0
2018-May-26 08:00N 50°58' E 001°51'0 0.0
2018-May-26 07:30N 50°58' E 001°51'0 0.0
2018-May-26 07:00N 50°58' E 001°51'0 0.0
2018-May-26 06:19N 50°58' E 001°51'0 0.0
2018-May-26 05:30N 50°58' E 001°51'0 0.0
2018-May-26 04:59N 50°58' E 001°51'0 0.0
2018-May-26 04:30N 50°58' E 001°51'0 0.0
2018-May-26 04:00N 50°58' E 001°51'0 0.0
2018-May-26 03:30N 50°58' E 001°51'0 0.0
2018-May-26 03:00N 50°58' E 001°51'0 0.0
2018-May-26 02:30N 50°58' E 001°51'0 0.0
2018-May-26 02:00N 50°58' E 001°51'0 0.0
2018-May-26 01:29N 50°58' E 001°51'0 0.0
2018-May-26 01:01N 50°58' E 001°51'0 0.0
2018-May-26 00:30N 50°58' E 001°51'0 0.0
2018-May-26 00:00N 50°58' E 001°51'0 0.0
2018-May-25 23:25N 50°58' E 001°51'0 0.0
2018-May-25 22:59N 50°58' E 001°51'0 0.0
2018-May-25 22:28N 50°58' E 001°51'0 0.0
2018-May-25 22:01N 50°58' E 001°51'0 0.0
2018-May-25 21:30N 50°58' E 001°51'0 0.0
2018-May-25 21:00N 50°58' E 001°51'0 0.0
2018-May-25 20:29N 50°58' E 001°51'0 0.0
2018-May-25 19:59N 50°58' E 001°51'0 0.0
2018-May-25 19:30N 50°58' E 001°51'0 0.0
2018-May-25 19:00N 50°58' E 001°51'2 5.1
2018-May-25 18:30N 50°58' E 001°47'816.3
2018-May-25 18:01N 51°01' E 001°35'917.3
2018-May-25 17:30N 51°06' E 001°24'2 2.1
2018-May-25 16:22N 51°07' E 001°20'616.2
2018-May-25 16:00N 51°05' E 001°29'713.2
2018-May-25 15:30N 51°01' E 001°38'816.8
2018-May-25 15:00N 50°58' E 001°50'1 2.2
2018-May-25 14:31N 50°58' E 001°52'0 0.0
2018-May-25 13:58N 50°58' E 001°52'3 7.1
2018-May-25 13:30N 50°58' E 001°47'714.1
2018-May-25 13:00N 51°00' E 001°36'917.3
2018-May-25 12:30N 51°05' E 001°25'3 1.6
2018-May-25 10:53N 51°07' E 001°22'615.9
2018-May-25 10:31N 51°06' E 001°31'917.8
2018-May-25 10:01N 51°00' E 001°41'612.2
2018-May-25 09:31N 50°58' E 001°50'1 1.5
2018-May-25 08:59N 50°58' E 001°52'0 0.0
2018-May-25 08:30N 50°58' E 001°52'0 0.0
2018-May-25 08:00N 50°58' E 001°52'0 0.0
2018-May-25 07:30N 50°58' E 001°52'0 0.0
2018-May-25 06:59N 50°58' E 001°52'0 0.0
2018-May-25 06:31N 50°58' E 001°52'0 0.0
2018-May-25 06:00N 50°58' E 001°52'0 0.0
2018-May-25 05:30N 50°58' E 001°52'0 0.0
2018-May-25 05:00N 50°58' E 001°52'0 0.0
2018-May-25 04:31N 50°58' E 001°52'0 0.0
2018-May-25 03:49N 50°58' E 001°52'0 0.0
2018-May-25 03:30N 50°58' E 001°52'0 0.0
2018-May-25 03:00N 50°58' E 001°52'0 0.0
2018-May-25 02:29N 50°58' E 001°52'0 0.0
2018-May-25 02:00N 50°58' E 001°52'0 0.0
2018-May-25 01:26N 50°58' E 001°52'0 0.0
2018-May-25 01:00N 50°58' E 001°52'0 0.0
2018-May-25 00:30N 50°58' E 001°52'0 0.0
2018-May-25 00:00N 50°58' E 001°52'0 0.0
2018-May-24 23:25N 50°58' E 001°52'0 0.0
2018-May-24 23:00N 50°58' E 001°52'0 0.0
2018-May-24 22:30N 50°58' E 001°52'0 0.0
2018-May-24 22:00N 50°58' E 001°52'0 0.0
2018-May-24 21:30N 50°58' E 001°52'0 0.0
2018-May-24 21:00N 50°58' E 001°52'0 0.0
2018-May-24 20:27N 50°58' E 001°52'0 0.0
2018-May-24 20:00N 50°58' E 001°52'0 0.0
2018-May-24 19:31N 50°58' E 001°52'0 0.0
2018-May-24 18:59N 50°58' E 001°52'4 8.5
2018-May-24 18:30N 50°58' E 001°45'917.6
2018-May-24 18:00N 51°01' E 001°32'917.5
2018-May-24 17:29N 51°07' E 001°21'1 0.9
2018-May-24 16:43N 51°07' E 001°20'0 0.6
2018-May-24 16:24N 51°07' E 001°20'410.2
2018-May-24 16:00N 51°06' E 001°26'612.3
2018-May-24 15:30N 51°02' E 001°34'714.4
2018-May-24 15:00N 50°59' E 001°44'5 9.1
2018-May-24 14:30N 50°58' E 001°51'0 0.0
2018-May-24 14:00N 50°58' E 001°51'3 7.0
2018-May-24 13:30N 50°58' E 001°45'3 0.8
2018-May-24 09:00N 50°58' E 001°51'0 0.2
2018-May-24 08:30N 50°58' E 001°51'1 1.1
2018-May-24 07:55N 50°58' E 001°52'0 0.0
2018-May-24 07:27N 50°58' E 001°52'0 0.0
2018-May-24 07:00N 50°58' E 001°52'0 0.0
2018-May-24 06:30N 50°58' E 001°52'0 0.0
2018-May-24 06:00N 50°58' E 001°52'0 0.0
2018-May-24 05:30N 50°58' E 001°52'0 0.0
2018-May-24 05:00N 50°58' E 001°52'0 0.0
2018-May-24 04:30N 50°58' E 001°52'0 0.0
2018-May-24 04:00N 50°58' E 001°52'0 0.0
2018-May-24 03:30N 50°58' E 001°52'0 0.0
2018-May-24 03:00N 50°58' E 001°52'0 0.0
2018-May-24 02:30N 50°58' E 001°52'0 0.0
2018-May-24 02:00N 50°58' E 001°52'0 0.0
2018-May-24 01:30N 50°58' E 001°52'0 0.0
2018-May-24 01:00N 50°58' E 001°52'0 0.0
2018-May-24 00:30N 50°58' E 001°52'0 0.0
2018-May-24 00:00N 50°58' E 001°52'0 0.0
2018-May-23 23:30N 50°58' E 001°52'0 0.0
2018-May-23 23:00N 50°58' E 001°52'0 0.0
2018-May-23 22:30N 50°58' E 001°52'0 0.0
2018-May-23 21:59N 50°58' E 001°52'0 0.6
2018-May-23 21:30N 50°58' E 001°52'0 0.1
2018-May-23 20:59N 50°58' E 001°52'3 6.8
2018-May-23 20:31N 50°58' E 001°47'815.3
2018-May-23 20:00N 51°01' E 001°35'917.2
2018-May-23 19:30N 51°06' E 001°24'3 3.7
2018-May-23 18:41N 51°07' E 001°20'0 0.0
2018-May-23 18:24N 51°07' E 001°20'1 3.2
2018-May-23 17:59N 51°07' E 001°22'815.7
2018-May-23 17:31N 51°05' E 001°33'816.7
2018-May-23 17:00N 50°59' E 001°43'510.4
2018-May-23 16:30N 50°58' E 001°52'0 0.0
2018-May-23 16:00N 50°58' E 001°52'2 3.1
2018-May-23 15:30N 50°58' E 001°49'815.2
2018-May-23 15:00N 50°59' E 001°37'816.8
2018-May-23 14:30N 51°04' E 001°27'4 2.7
2018-May-23 13:06N 51°07' E 001°22'117.3
2018-May-23 13:01N 51°06' E 001°25'816.7
2018-May-23 12:31N 51°02' E 001°35'816.8
2018-May-23 12:01N 50°58' E 001°48'3 5.0
2018-May-23 11:30N 50°58' E 001°52'0 0.0
2018-May-23 10:53N 50°58' E 001°52'3 9.1
2018-May-23 10:30N 50°58' E 001°46'815.7
2018-May-23 10:00N 51°00' E 001°34'917.2
2018-May-23 09:30N 51°06' E 001°24'2 1.4
2018-May-23 08:13N 51°07' E 001°22'416.4
2018-May-23 08:01N 51°06' E 001°28'816.3
2018-May-23 07:31N 51°02' E 001°39'714.8
2018-May-23 07:00N 50°58' E 001°49'2 3.2
2018-May-23 06:28N 50°58' E 001°52'0 0.0
2018-May-23 06:00N 50°58' E 001°52'611.3
2018-May-23 05:30N 50°58' E 001°43'917.7
2018-May-23 05:00N 51°03' E 001°30'8 7.6
2018-May-23 03:56N 51°07' E 001°20'1 2.0
2018-May-23 03:19N 51°07' E 001°22'2 5.6
2018-May-23 03:01N 51°07' E 001°25'714.5
2018-May-23 02:30N 51°03' E 001°35'816.1
2018-May-23 02:00N 50°58' E 001°45'4 8.3
2018-May-23 01:28N 50°58' E 001°52'0 0.0
2018-May-23 01:00N 50°58' E 001°52'0 0.0
2018-May-23 00:30N 50°58' E 001°52'0 0.0
2018-May-22 23:56N 50°58' E 001°52'0 0.0
2018-May-22 23:28N 50°58' E 001°52'0 0.0
2018-May-22 23:00N 50°58' E 001°52'0 0.0
2018-May-22 22:24N 50°58' E 001°52'0 0.0
2018-May-22 21:57N 50°58' E 001°52'0 0.0
2018-May-22 21:26N 50°58' E 001°52'0 0.0
2018-May-22 20:55N 50°58' E 001°52'0 0.0
2018-May-22 20:25N 50°58' E 001°52'0 0.0
2018-May-22 20:00N 50°58' E 001°52'3 6.8
2018-May-22 19:30N 50°58' E 001°46'816.3
2018-May-22 19:01N 51°01' E 001°35'917.1
2018-May-22 18:31N 51°06' E 001°23'2 3.1
2018-May-22 17:45N 51°07' E 001°20'0 0.3
2018-May-22 17:20N 51°07' E 001°20'514.6
2018-May-22 17:01N 51°06' E 001°27'917.8
2018-May-22 16:31N 51°01' E 001°39'815.3
2018-May-22 16:00N 50°58' E 001°50'0 0.8
2018-May-22 15:29N 50°58' E 001°51'1 1.5
2018-May-22 15:01N 50°58' E 001°50'815.8
2018-May-22 14:30N 51°01' E 001°38'917.3
2018-May-22 14:00N 51°05' E 001°26'4 7.5
2018-May-22 13:25N 51°07' E 001°20'0 0.0
2018-May-22 13:01N 51°07' E 001°20'3 5.7
2018-May-22 12:30N 51°07' E 001°24'918.2
2018-May-22 12:00N 51°02' E 001°37'917.4
2018-May-22 11:30N 50°58' E 001°49'1 2.1
2018-May-22 11:00N 50°58' E 001°51'0 0.2
2018-May-22 10:30N 50°58' E 001°51'613.1
2018-May-22 10:00N 50°58' E 001°41'714.8
2018-May-22 09:31N 51°02' E 001°31'914.6
2018-May-22 08:54N 51°07' E 001°20'0 0.0
2018-May-22 08:27N 51°07' E 001°20'0 0.8
2018-May-22 07:59N 51°07' E 001°21'816.9
2018-May-22 07:30N 51°04' E 001°32'917.5
2018-May-22 07:00N 50°59' E 001°43'5 9.7
2018-May-22 06:30N 50°58' E 001°51'0 0.0
2018-May-22 05:59N 50°58' E 001°51'3 5.5
2018-May-22 05:31N 50°58' E 001°47'917.9
2018-May-22 05:00N 51°02' E 001°34'917.8
2018-May-22 04:30N 51°07' E 001°22'1 2.5
2018-May-22 03:57N 51°07' E 001°20'0 0.0
2018-May-22 03:29N 51°07' E 001°20'0 0.6
2018-May-22 03:01N 51°07' E 001°20'815.6
2018-May-22 02:31N 51°04' E 001°32'917.7
2018-May-22 02:00N 50°59' E 001°43'5 9.9
2018-May-22 01:30N 50°58' E 001°51'0 0.0
2018-May-22 01:00N 50°58' E 001°51'0 0.0
2018-May-22 00:30N 50°58' E 001°51'0 0.0
2018-May-22 00:00N 50°58' E 001°51'0 0.0
2018-May-21 23:30N 50°58' E 001°51'0 0.0
2018-May-21 22:59N 50°58' E 001°51'0 0.0
2018-May-21 22:30N 50°58' E 001°51'0 0.0
2018-May-21 22:00N 50°58' E 001°51'0 0.0
2018-May-21 21:30N 50°58' E 001°51'0 0.0
2018-May-21 20:59N 50°58' E 001°51'0 0.0
2018-May-21 20:30N 50°58' E 001°51'0 0.0
2018-May-21 19:57N 50°58' E 001°51'1 2.5
2018-May-21 19:30N 50°58' E 001°49'917.7
2018-May-21 19:01N 50°59' E 001°35'917.6
2018-May-21 18:31N 51°05' E 001°25'4 4.6
2018-May-21 17:39N 51°07' E 001°20'0 0.5
2018-May-21 17:22N 51°07' E 001°20'412.2
2018-May-21 17:00N 51°06' E 001°27'917.7
2018-May-21 16:30N 51°01' E 001°39'815.0
2018-May-21 16:00N 50°58' E 001°50'1 1.6
2018-May-21 15:29N 50°58' E 001°51'0 0.7
2018-May-21 15:00N 50°58' E 001°51'817.0
2018-May-21 14:30N 50°59' E 001°37'917.7
2018-May-21 14:00N 51°04' E 001°25'5 5.3
2018-May-21 13:07N 51°07' E 001°20'0 0.9
2018-May-21 12:57N 51°07' E 001°20'715.6
2018-May-21 12:30N 51°04' E 001°30'918.3
2018-May-21 12:00N 50°59' E 001°42'611.2
2018-May-21 11:30N 50°58' E 001°51'0 0.0
2018-May-21 11:00N 50°58' E 001°51'1 2.1
2018-May-21 10:31N 50°58' E 001°49'815.3
2018-May-21 10:01N 50°59' E 001°37'917.7
2018-May-21 09:31N 51°05' E 001°26'5 8.9
2018-May-21 08:59N 51°07' E 001°20'0 0.0
2018-May-21 08:23N 51°07' E 001°20'3 6.8
2018-May-21 08:00N 51°07' E 001°24'917.5
2018-May-21 07:30N 51°03' E 001°36'816.9
2018-May-21 07:00N 50°58' E 001°48'2 4.8
2018-May-21 06:30N 50°58' E 001°52'0 0.0
2018-May-21 05:59N 50°58' E 001°52'0 0.0
2018-May-21 05:30N 50°58' E 001°52'0 0.0
2018-May-21 05:00N 50°58' E 001°52'0 0.0
2018-May-21 04:29N 50°58' E 001°52'0 0.0
2018-May-21 04:01N 50°58' E 001°52'0 0.0
2018-May-21 03:31N 50°58' E 001°52'0 0.0
2018-May-21 03:00N 50°58' E 001°52'0 0.0
2018-May-21 02:29N 50°58' E 001°52'0 0.0
2018-May-21 02:00N 50°58' E 001°52'0 0.0
2018-May-21 01:30N 50°58' E 001°52'0 0.0
2018-May-21 01:00N 50°58' E 001°52'0 0.0
2018-May-21 00:30N 50°58' E 001°52'0 0.0
2018-May-21 00:00N 50°58' E 001°52'0 0.0
2018-May-20 23:29N 50°58' E 001°52'0 0.0
2018-May-20 23:00N 50°58' E 001°52'0 0.0
2018-May-20 22:30N 50°58' E 001°52'0 0.0
2018-May-20 21:47N 50°58' E 001°52'0 0.0
2018-May-20 21:29N 50°58' E 001°52'0 0.0
2018-May-20 21:00N 50°58' E 001°52'0 0.0
2018-May-20 20:30N 50°58' E 001°52'0 0.0
2018-May-20 19:57N 50°58' E 001°52'1 1.8
2018-May-20 19:30N 50°58' E 001°50'816.2
2018-May-20 19:00N 50°60' E 001°38'918.2
2018-May-20 18:31N 51°05' E 001°26'5 5.4
2018-May-20 17:39N 51°07' E 001°20'0 1.0
2018-May-20 17:30N 51°07' E 001°20'815.5
2018-May-20 17:00N 51°05' E 001°32'917.2
2018-May-20 16:30N 50°59' E 001°42'610.6
2018-May-20 15:59N 50°58' E 001°51'0 0.0
2018-May-20 15:30N 50°58' E 001°51'1 1.5
2018-May-20 15:00N 50°58' E 001°50'917.8
2018-May-20 14:30N 51°01' E 001°36'918.2
2018-May-20 14:00N 51°06' E 001°24'2 2.4
2018-May-20 13:01N 51°07' E 001°21'016.1
2018-May-20 13:00N 51°07' E 001°22'817.3
2018-May-20 12:31N 51°03' E 001°33'918.0
2018-May-20 12:00N 50°58' E 001°45'4 7.5
2018-May-20 11:29N 50°58' E 001°52'0 0.0
2018-May-20 10:58N 50°58' E 001°52'2 4.4
2018-May-20 10:30N 50°58' E 001°48'713.6
2018-May-20 10:00N 50°58' E 001°38'815.8
2018-May-20 09:30N 51°03' E 001°28'6 4.8
2018-May-20 08:11N 51°07' E 001°20'213.4
2018-May-20 08:01N 51°07' E 001°24'918.0
2018-May-20 07:31N 51°02' E 001°36'917.4
2018-May-20 07:00N 50°58' E 001°49'2 3.3
2018-May-20 06:25N 50°58' E 001°52'0 0.6
2018-May-20 06:00N 50°58' E 001°52'0 0.0
2018-May-20 05:30N 50°58' E 001°52'0 0.0
2018-May-20 05:00N 50°58' E 001°52'0 0.0
2018-May-20 04:30N 50°58' E 001°52'0 0.0
2018-May-20 04:00N 50°58' E 001°52'0 0.0
2018-May-20 03:30N 50°58' E 001°52'0 0.0
2018-May-20 03:00N 50°58' E 001°52'0 0.0
2018-May-20 02:30N 50°58' E 001°52'0 0.0
2018-May-20 02:00N 50°58' E 001°52'0 0.0
2018-May-20 01:30N 50°58' E 001°52'0 0.0
2018-May-20 01:00N 50°58' E 001°52'0 0.0
2018-May-20 00:30N 50°58' E 001°52'0 0.0
2018-May-20 00:00N 50°58' E 001°52'0 0.0
2018-May-19 23:29N 50°58' E 001°52'0 0.0
2018-May-19 22:59N 50°58' E 001°52'0 0.0
2018-May-19 22:30N 50°58' E 001°52'0 0.0
2018-May-19 22:00N 50°58' E 001°52'0 0.0
2018-May-19 21:30N 50°58' E 001°52'0 0.0
2018-May-19 20:58N 50°58' E 001°52'0 0.7
2018-May-19 20:30N 50°58' E 001°52'0 0.9
2018-May-19 20:00N 50°58' E 001°51'714.6
2018-May-19 19:30N 50°58' E 001°39'815.6
2018-May-19 19:00N 51°03' E 001°30'6 5.2
2018-May-19 17:50N 51°07' E 001°22'617.0
2018-May-19 17:30N 51°06' E 001°31'917.3
2018-May-19 17:00N 51°00' E 001°42'611.8
2018-May-19 16:28N 50°58' E 001°51'0 0.0
2018-May-19 16:00N 50°58' E 001°51'1 2.2
2018-May-19 15:30N 50°58' E 001°49'917.1
2018-May-19 15:00N 51°00' E 001°36'917.2
2018-May-19 14:31N 51°05' E 001°25'2 1.8
2018-May-19 13:07N 51°07' E 001°22'216.4
2018-May-19 13:00N 51°07' E 001°25'917.3
2018-May-19 12:30N 51°02' E 001°37'816.0
2018-May-19 12:00N 50°58' E 001°48'2 4.0
2018-May-19 11:30N 50°58' E 001°51'0 0.0
2018-May-19 11:01N 50°58' E 001°51'4 8.9
2018-May-19 10:31N 50°58' E 001°44'815.7
2018-May-19 10:00N 51°01' E 001°32'816.6
2018-May-19 09:30N 51°06' E 001°22'2 2.9
2018-May-19 08:56N 51°07' E 001°20'0 0.0
2018-May-19 08:28N 51°07' E 001°20'2 4.5
2018-May-19 08:00N 51°07' E 001°23'917.8
2018-May-19 07:30N 51°03' E 001°36'917.2
2018-May-19 07:00N 50°58' E 001°47'2 3.9
2018-May-19 06:26N 50°58' E 001°51'0 0.0
2018-May-19 06:00N 50°58' E 001°51'611.6
2018-May-19 05:31N 50°58' E 001°42'917.2
2018-May-19 05:00N 51°02' E 001°30'8 8.4
2018-May-19 04:03N 51°07' E 001°20'1 1.2
2018-May-19 02:48N 51°07' E 001°22'311.8
2018-May-19 02:31N 51°06' E 001°27'714.9
2018-May-19 02:00N 51°02' E 001°37'714.0
2018-May-19 01:30N 50°58' E 001°47'3 5.0
2018-May-19 01:00N 50°58' E 001°51'0 0.0
2018-May-19 00:30N 50°58' E 001°51'0 0.0
2018-May-19 00:01N 50°58' E 001°51'0 0.0
2018-May-18 23:30N 50°58' E 001°51'0 0.0
2018-May-18 23:00N 50°58' E 001°51'0 0.0
2018-May-18 22:30N 50°58' E 001°51'0 0.0
2018-May-18 22:01N 50°58' E 001°51'0 0.0
2018-May-18 21:30N 50°58' E 001°51'0 0.0
2018-May-18 21:01N 50°58' E 001°51'0 0.0
2018-May-18 20:29N 50°58' E 001°51'4 9.4
2018-May-18 20:01N 50°58' E 001°44'815.5
2018-May-18 19:30N 51°01' E 001°33'917.3
2018-May-18 19:00N 51°06' E 001°22'1 0.5
2018-May-18 17:37N 51°07' E 001°22'217.1
2018-May-18 17:30N 51°06' E 001°25'917.5
2018-May-18 17:00N 51°02' E 001°37'816.6
2018-May-18 16:30N 50°58' E 001°49'1 2.4
2018-May-18 15:58N 50°58' E 001°51'0 0.9
2018-May-18 15:30N 50°58' E 001°50'816.8
2018-May-18 15:00N 50°60' E 001°38'917.7
2018-May-18 14:30N 51°05' E 001°26'5 4.9
2018-May-18 13:33N 51°07' E 001°20'0 1.1
2018-May-18 13:17N 51°07' E 001°20'3 9.7
2018-May-18 13:01N 51°07' E 001°24'917.2
2018-May-18 12:31N 51°02' E 001°36'815.8
2018-May-18 12:00N 50°58' E 001°47'3 5.6
2018-May-18 11:29N 50°58' E 001°52'0 0.0
2018-May-18 10:59N 50°58' E 001°52'612.0
2018-May-18 10:30N 50°58' E 001°42'816.2
2018-May-18 10:00N 51°02' E 001°32'916.0
2018-May-18 09:27N 51°07' E 001°20'0 0.4
2018-May-18 08:55N 51°07' E 001°20'0 0.3
2018-May-18 08:20N 51°07' E 001°20'2 6.8
2018-May-18 08:00N 51°07' E 001°24'917.6
2018-May-18 07:30N 51°02' E 001°35'917.5
2018-May-18 07:00N 50°58' E 001°48'2 4.4
2018-May-18 06:28N 50°58' E 001°52'0 0.0
2018-May-18 06:00N 50°58' E 001°52'2 4.0
2018-May-18 05:31N 50°58' E 001°49'815.2
2018-May-18 05:00N 51°00' E 001°37'917.5
2018-May-18 04:30N 51°05' E 001°26'4 4.8
2018-May-18 03:39N 51°07' E 001°20'0 0.0
2018-May-18 03:08N 51°07' E 001°20'0 0.0
2018-May-18 02:48N 51°07' E 001°20'1 1.8
2018-May-18 02:28N 51°07' E 001°21'715.3
2018-May-18 02:00N 51°06' E 001°32'713.1
2018-May-18 01:31N 51°01' E 001°39'612.8
2018-May-18 01:00N 50°58' E 001°48'2 3.6
2018-May-18 00:30N 50°58' E 001°51'0 0.0
2018-May-18 00:00N 50°58' E 001°51'1 1.1
2018-May-17 23:30N 50°58' E 001°52'0 0.0
2018-May-17 23:00N 50°58' E 001°52'0 0.0
2018-May-17 22:30N 50°58' E 001°52'1 1.1
2018-May-17 22:00N 50°58' E 001°51'0 0.0
2018-May-17 21:30N 50°58' E 001°51'510.2
2018-May-17 21:00N 50°58' E 001°43'815.6
2018-May-17 20:30N 51°02' E 001°32'913.6
2018-May-17 19:49N 51°07' E 001°20'0 0.0
2018-May-17 19:30N 51°07' E 001°20'1 1.1
2018-May-17 18:47N 51°07' E 001°21'517.6
2018-May-17 18:30N 51°05' E 001°28'917.3
2018-May-17 18:01N 51°00' E 001°40'714.6
2018-May-17 17:30N 50°58' E 001°51'0 0.4
2018-May-17 17:00N 50°58' E 001°51'0 0.0
2018-May-17 16:31N 50°58' E 001°51'4 8.7
2018-May-17 16:00N 50°58' E 001°44'815.9
2018-May-17 15:29N 51°00' E 001°32'816.4
2018-May-17 15:00N 51°06' E 001°22'2 2.2
2018-May-17 14:01N 51°07' E 001°20'0 1.0
2018-May-17 13:46N 51°07' E 001°20'414.3
2018-May-17 13:30N 51°07' E 001°26'816.6
2018-May-17 13:00N 51°02' E 001°37'714.7
2018-May-17 12:30N 50°58' E 001°47'3 5.6
2018-May-17 12:00N 50°58' E 001°52'0 0.0
2018-May-17 11:31N 50°58' E 001°52'1 1.1
2018-May-17 11:00N 50°58' E 001°51'815.2
2018-May-17 10:31N 50°59' E 001°39'817.0
2018-May-17 10:00N 51°04' E 001°28'6 9.3
2018-May-17 09:22N 51°07' E 001°20'1 1.5
2018-May-17 08:23N 51°07' E 001°22'717.6
2018-May-17 08:00N 51°05' E 001°32'  

Dump ship's entire track history